Latest Coastal Weather Observations for Marion Reef

IDQ60701

Issued at 6:31 am EST Monday 3 August 2015 (issued every 10 minutes, with the page automatically refreshed every 10 minutes)

About coastal observations | Map of coastal stations | Coastal observations for QLD | Marine services | Other Formats
Station Details ID: 200704 Name: MARION REEF Lat: -19.10 Lon: 152.39 Height: 2.0 m
Data from the previous 72 hours. | See also: Recent months for locations in Queensland
Date/Time
EST
Temp

°C
Wind Pressure Rain
since 9am
mm
Weather Cloud Vis
km
Sea
Height
m
Swell
Dir
 
Speed
knots
Gust
knots
hPa Trend Height
m
Period
s
Dir
03/06:00am 22.8 SE 17 19 1017.5 - - - - - - - - -
03/05:30am 22.8 ESE 16 18 1017.6 - - - - - - - - -
03/05:00am 23.3 ESE 17 20 1017.3 - - - - - - - - -
03/04:30am 22.7 ESE 17 20 1017.3 - - - - - - - - -
03/04:00am 22.8 SE 18 22 1017.1 - - - - - - - - -
03/03:30am 22.8 SE 18 21 1017.2 - - - - - - - - -
03/03:00am 22.8 SE 18 21 1017.2 - - - - - - - - -
03/02:30am 22.7 ESE 18 20 1017.4 - - - - - - - - -
03/02:00am 22.8 SE 18 21 1017.5 - - - - - - - - -
03/01:30am 23.0 SE 17 20 1017.9 - - - - - - - - -
03/01:00am 23.2 SE 18 20 1018.1 - - - - - - - - -
03/12:30am 23.3 ESE 17 21 1018.6 - - - - - - - - -
03/12:00am 23.1 ESE 16 19 1018.8 - - - - - - - - -
 
Date/Time
EST
Temp

°C
Wind Pressure Rain
since 9am
mm
Weather Cloud Vis
km
Sea
Height
m
Swell
Dir
 
Speed
knots
Gust
knots
hPa Trend Height
m
Period
s
Dir
02/11:30pm 22.9 ESE 18 21 1019.0 - - - - - - - - -
02/11:00pm 22.8 ESE 17 20 1019.0 - - - - - - - - -
02/10:30pm 23.0 SE 15 17 1019.2 - - - - - - - - -
02/10:00pm 22.8 ESE 16 19 1019.2 - - - - - - - - -
02/09:30pm 23.1 ESE 14 17 1019.4 - - - - - - - - -
02/09:00pm 23.1 ESE 16 18 1019.1 - - - - - - - - -
02/08:30pm 22.9 SE 16 19 1019.2 - - - - - - - - -
02/08:00pm 22.7 ESE 16 19 1019.0 - - - - - - - - -
02/07:30pm 23.1 ESE 16 18 1018.9 - - - - - - - - -
02/07:00pm 23.1 ESE 16 18 1018.5 - - - - - - - - -
02/06:30pm 22.5 SE 13 16 1018.2 - - - - - - - - -
02/06:00pm 22.7 SE 17 20 1018.0 - - - - - - - - -
02/05:30pm 22.8 SE 15 17 1017.9 - - - - - - - - -
02/05:00pm 23.2 SE 14 16 1017.8 - - - - - - - - -
02/04:30pm 22.9 SSE 9 10 1017.8 - - - - - - - - -
02/04:00pm 22.6 SSE 11 13 1017.5 - - - - - - - - -
02/03:30pm 22.5 SSE 14 17 1017.7 - - - - - - - - -
02/03:00pm 23.2 SE 15 17 1017.6 - - - - - - - - -
02/02:30pm 23.1 ESE 17 21 1017.7 - - - - - - - - -
02/02:00pm 23.2 ESE 16 18 1017.6 - - - - - - - - -
02/01:30pm 23.3 ESE 14 17 1018.0 - - - - - - - - -
02/01:00pm 23.1 ESE 16 18 1018.3 - - - - - - - - -
02/12:30pm 23.1 ESE 14 17 1018.9 - - - - - - - - -
02/12:00pm 23.1 SSE 14 17 1019.0 - - - - - - - - -
02/11:30am 23.2 ESE 18 21 1019.4 - - - - - - - - -
02/11:00am 22.6 ESE 16 19 1019.5 - - - - - - - - -
02/10:30am 23.5 SE 16 19 1019.9 - - - - - - - - -
02/10:00am 23.2 SE 17 20 1019.9 - - - - - - - - -
02/09:30am 23.1 SE 18 21 1020.2 - - - - - - - - -
02/09:00am 23.0 ESE 18 22 1020.1 - - - - - - - - -
02/08:30am 23.0 ESE 18 21 1020.0 - - - - - - - - -
02/08:00am 23.3 ESE 16 19 1019.8 - - - - - - - - -
02/07:30am 23.0 ESE 17 21 1019.5 - - - - - - - - -
02/07:00am 22.9 ESE 20 24 1019.3 - - - - - - - - -
02/06:30am 22.7 ESE 18 23 1019.3 - - - - - - - - -
02/06:00am 22.4 ESE 20 24 1018.9 - - - - - - - - -
02/05:30am 22.7 ESE 19 25 1018.7 - - - - - - - - -
02/05:00am 22.5 ESE 19 23 1018.5 - - - - - - - - -
02/04:30am 22.6 ESE 20 23 1018.5 - - - - - - - - -
02/04:00am 22.9 ESE 22 25 1018.4 - - - - - - - - -
02/03:30am 22.9 ESE 20 23 1018.5 - - - - - - - - -
02/03:00am 23.1 ESE 22 25 1018.5 - - - - - - - - -
02/02:30am 22.9 ESE 22 26 1018.6 - - - - - - - - -
02/02:00am 22.9 ESE 21 25 1018.6 - - - - - - - - -
02/01:30am 22.6 SE 20 23 1018.8 - - - - - - - - -
02/01:00am 22.9 ESE 20 23 1018.9 - - - - - - - - -
02/12:30am 23.1 ESE 20 24 1019.2 - - - - - - - - -
02/12:00am 22.9 SE 22 25 1019.1 - - - - - - - - -
 
Date/Time
EST
Temp

°C
Wind Pressure Rain
since 9am
mm
Weather Cloud Vis
km
Sea
Height
m
Swell
Dir
 
Speed
knots
Gust
knots
hPa Trend Height
m
Period
s
Dir
01/11:30pm 22.9 SE 23 27 1019.1 - - - - - - - - -
01/11:00pm 23.1 SE 22 25 1019.1 - - - - - - - - -
01/10:30pm 22.7 SE 21 26 1019.4 - - - - - - - - -
01/10:00pm 22.7 SE 20 25 1019.2 - - - - - - - - -
01/09:30pm 22.8 SE 22 25 1019.3 - - - - - - - - -
01/09:00pm 23.0 SE 19 23 1019.3 - - - - - - - - -
01/08:30pm 22.7 SE 21 26 1019.3 - - - - - - - - -
01/08:00pm 22.4 SE 20 23 1018.9 - - - - - - - - -
01/07:30pm 22.9 SE 19 25 1018.6 - - - - - - - - -
01/07:00pm 22.7 SE 19 23 1018.2 - - - - - - - - -
01/06:30pm 22.7 SE 19 24 1017.9 - - - - - - - - -
01/06:00pm 22.8 SE 20 23 1017.5 - - - - - - - - -
01/05:30pm 23.2 SE 19 22 1017.5 - - - - - - - - -
01/05:00pm 22.7 SE 19 23 1017.2 - - - - - - - - -
01/04:30pm 23.0 SE 19 22 1017.2 - - - - - - - - -
01/04:00pm 22.6 SE 20 23 1017.1 - - - - - - - - -
01/03:30pm 22.7 SE 19 22 1017.1 - - - - - - - - -
01/03:00pm 22.9 SE 18 21 1017.0 - - - - - - - - -
01/02:30pm 22.9 SE 16 20 1017.4 - - - - - - - - -
01/02:00pm 22.9 SE 16 19 1017.6 - - - - - - - - -
01/01:30pm 22.8 SE 16 19 1018.3 - - - - - - - - -
01/01:00pm 23.0 SE 17 19 1018.4 - - - - - - - - -
01/12:30pm 22.8 SE 17 19 1019.0 - - - - - - - - -
01/12:00pm 22.6 SE 18 21 1019.2 - - - - - - - - -
01/11:30am 23.0 SE 19 22 1019.7 - - - - - - - - -
01/11:00am 22.6 SE 17 20 1019.8 - - - - - - - - -
01/10:30am 22.8 SE 16 20 1020.3 - - - - - - - - -
01/10:00am 22.9 SE 19 23 1020.3 - - - - - - - - -
01/09:30am 23.2 SE 19 21 1020.4 - - - - - - - - -
01/09:00am 23.0 SE 17 21 1020.2 - - - - - - - - -
01/08:30am 23.0 SE 18 22 1020.2 - - - - - - - - -
01/08:00am 22.9 SE 21 23 1019.8 - - - - - - - - -
01/07:30am 22.7 SE 20 25 1019.6 - - - - - - - - -
01/07:00am 22.7 ESE 20 23 1019.2 - - - - - - - - -
01/06:30am 22.7 SE 18 21 1019.1 - - - - - - - - -
01/06:00am 22.6 SE 21 24 1018.8 - - - - - - - - -
01/05:30am 22.6 SE 19 24 1018.6 - - - - - - - - -
01/05:00am 22.7 SE 20 25 1018.3 - - - - - - - - -
01/04:30am 22.7 SE 20 25 1018.2 - - - - - - - - -
01/04:00am 22.7 ESE 19 23 1018.1 - - - - - - - - -
01/03:30am 22.5 ESE 21 26 1018.2 - - - - - - - - -
01/03:06am 22.4 ESE 19 29 1018.1 - - - - - - - - -
01/03:00am 22.4 SE 19 25 1018.1 - - - - - - - - -
01/02:30am 22.5 SE 21 27 1018.0 - - - - - - - - -
01/02:00am 22.4 ESE 20 25 1017.9 - - - - - - - - -
01/01:30am 22.5 ESE 20 22 1018.1 - - - - - - - - -
01/01:00am 22.9 ESE 21 26 1018.4 - - - - - - - - -
01/12:30am 22.7 E 21 25 1018.9 - - - - - - - - -
01/12:00am 22.9 ESE 22 24 1018.8 - - - - - - - - -
 
Date/Time
EST
Temp

°C
Wind Pressure Rain
since 9am
mm
Weather Cloud Vis
km
Sea
Height
m
Swell
Dir
 
Speed
knots
Gust
knots
hPa Trend Height
m
Period
s
Dir
31/11:30pm 22.8 ESE 19 23 1019.2 - - - - - - - - -
31/11:00pm 22.8 SE 23 27 1019.3 - - - - - - - - -
31/10:30pm 23.0 ESE 20 24 1019.6 - - - - - - - - -
31/10:00pm 23.1 ESE 24 27 1019.4 - - - - - - - - -
31/09:30pm 22.9 SE 24 29 1019.6 - - - - - - - - -
31/09:00pm 22.8 SE 21 27 1019.4 - - - - - - - - -
31/08:30pm 23.0 SE 21 24 1019.3 - - - - - - - - -
31/08:00pm 22.7 SE 23 27 1019.0 - - - - - - - - -
31/07:30pm 21.9 SE 22 27 1018.9 - - - - - - - - -
31/07:00pm 22.8 SE 21 25 1018.5 - - - - - - - - -
31/06:30pm 22.9 SE 23 27 1018.2 - - - - - - - - -
31/06:00pm 22.6 SE 23 28 1017.8 - - - - - - - - -
31/05:30pm 22.8 SE 23 27 1017.5 - - - - - - - - -
31/05:00pm 22.7 SE 22 26 1017.3 - - - - - - - - -
31/04:30pm 22.7 SE 22 28 1017.1 - - - - - - - - -
31/04:00pm 22.6 SSE 23 29 1016.8 - - - - - - - - -
31/03:30pm 22.8 SSE 23 27 1016.9 - - - - - - - - -
31/03:00pm 22.4 SSE 23 28 1016.7 - - - - - - - - -
31/02:30pm 22.7 SE 22 25 1016.9 - - - - - - - - -
31/02:00pm 22.5 SE 21 25 1017.1 - - - - - - - - -
31/01:30pm 22.8 SE 21 25 1017.3 - - - - - - - - -
31/01:00pm 22.7 SE 21 25 1017.6 - - - - - - - - -
31/12:30pm 22.5 SE 22 25 1018.1 - - - - - - - - -
31/12:00pm 22.5 SE 22 27 1018.4 - - - - - - - - -
31/11:30am 22.8 SE 21 25 1019.3 - - - - - - - - -
31/11:00am 22.6 SSE 22 25 1019.3 - - - - - - - - -
31/10:30am 22.7 SE 20 25 1019.9 - - - - - - - - -
31/10:00am 22.4 SE 21 26 1020.0 - - - - - - - - -
31/09:30am 22.6 SE 21 24 1020.3 - - - - - - - - -
31/09:00am 22.4 SE 22 26 1020.2 - - - - - - - - -
31/08:30am 22.6 SE 23 26 1020.1 - - - - - - - - -
31/08:00am 22.2 SE 21 25 1020.0 - - - - - - - - -
31/07:30am 22.3 SE 21 25 1020.1 - - - - - - - - -
31/07:00am 22.2 ESE 23 25 1019.6 - - - - - - - - -

Other Formats:

Comma delimited format used in spreadsheet applications
http://www.bom.gov.au/fwo/IDQ60701/IDQ60701.94298.axf

JavaScript Object Notation format (JSON) in row-major order
http://www.bom.gov.au/fwo/IDQ60701/IDQ60701.94298.json